Time;durP1;ratioP1;P1;durP2;ratioP2;P2;SDS_P1;SDS_P2;PMS_P1;PMS_P2;Temp;Humidity;BMP_temperature;BMP_pressure;BME280_temperature;BME280_humidity;BME280_pressure;Samples;Min_cycle;Max_cycle;Signal;HPM_P1;HPM_P2
2022/08/25 00:01:21;;;;;;;16.90;14.20;;;;;;;19.63;68.56;100331.16;5032745;28;20132;-73
2022/08/25 00:03:53;;;;;;;16.80;13.25;;;;;;;19.93;68.05;100376.41;5032685;28;20057;-73
2022/08/25 00:06:22;;;;;;;17.45;12.93;;;;;;;19.42;68.15;100296.34;5032636;28;20057;-74
2022/08/25 00:08:50;;;;;;;15.20;13.00;;;;;;;20.00;68.04;100382.34;5032181;28;20445;-74
2022/08/25 00:11:23;;;;;;;15.38;12.85;;;;;;;20.05;68.35;100379.25;5032184;28;20072;-73
2022/08/25 00:13:54;;;;;;;13.80;12.50;;;;;;;19.61;68.29;100296.66;5032779;28;20046;-74
2022/08/25 00:16:22;;;;;;;14.40;12.88;;;;;;;20.12;68.47;100373.84;5032509;28;20083;-74
2022/08/25 00:18:55;;;;;;;24.02;14.05;;;;;;;20.18;68.03;100385.00;5032097;28;20050;-73
2022/08/25 00:21:23;;;;;;;18.00;14.23;;;;;;;20.26;67.66;100390.56;5032404;28;20077;-73
2022/08/25 00:23:50;;;;;;;18.88;13.65;;;;;;;20.29;67.66;100386.19;5032188;28;20049;-73
2022/08/25 00:26:17;;;;;;;21.13;14.90;;;;;;;20.20;67.70;100366.44;5032180;28;20088;-73
2022/08/25 00:28:45;;;;;;;21.65;14.27;;;;;;;19.94;67.60;100329.88;5032455;28;20049;-73
2022/08/25 00:31:15;;;;;;;15.50;13.93;;;;;;;19.94;67.98;100331.88;5031928;28;20517;-73
2022/08/25 00:33:44;;;;;;;21.17;15.57;;;;;;;20.26;67.75;100375.56;5035974;28;20061;-73
2022/08/25 00:36:11;;;;;;;18.17;15.15;;;;;;;20.23;67.80;100376.25;5035794;28;20133;-73
2022/08/25 00:38:39;;;;;;;18.90;15.27;;;;;;;20.18;68.30;100370.81;5035909;28;20088;-74
2022/08/25 00:41:08;;;;;;;21.13;15.45;;;;;;;19.98;68.21;100330.81;5034341;28;20103;-72
2022/08/25 00:43:44;;;;;;;19.77;15.07;;;;;;;20.36;68.20;100390.09;5035912;28;20150;-74
2022/08/25 00:46:18;;;;;;;18.23;14.35;;;;;;;20.35;68.11;100379.13;5027353;28;20154;-74
2022/08/25 00:48:50;;;;;;;22.83;14.25;;;;;;;20.27;67.93;100363.03;5035383;28;20049;-74
2022/08/25 00:51:24;;;;;;;18.80;14.60;;;;;;;20.21;68.13;100362.44;5035497;28;20056;-74
2022/08/25 00:53:51;;;;;;;20.48;15.40;;;;;;;20.29;67.99;100374.84;5035345;28;20502;-74
2022/08/25 00:56:18;;;;;;;24.73;15.90;;;;;;;20.28;67.82;100367.53;5035304;28;20564;-73
2022/08/25 00:58:47;;;;;;;19.73;16.25;;;;;;;20.33;68.12;100375.81;5035532;28;20049;-73
2022/08/25 01:01:14;;;;;;;18.45;15.50;;;;;;;20.37;68.11;100371.06;5035506;28;20073;-73
2022/08/25 01:03:41;;;;;;;16.10;13.80;;;;;;;20.25;68.06;100345.53;5043677;28;20056;-75
2022/08/25 01:06:10;;;;;;;23.42;15.35;;;;;;;20.21;67.67;100341.75;5055029;28;20084;-73
2022/08/25 01:08:37;;;;;;;20.98;15.10;;;;;;;20.04;67.85;100301.09;5055327;28;20417;-72
2022/08/25 01:11:06;;;;;;;21.85;15.52;;;;;;;19.89;68.03;100276.22;5055385;28;20132;-73
2022/08/25 01:13:48;;;;;;;21.63;15.90;;;;;;;20.29;67.90;100350.16;5055249;28;20079;-74
2022/08/25 01:16:15;;;;;;;26.77;16.85;;;;;;;19.91;68.12;100288.06;5054917;28;20501;-74
2022/08/25 01:18:47;;;;;;;22.33;15.27;;;;;;;20.42;68.21;100365.19;5054788;28;20505;-74
2022/08/25 01:21:14;;;;;;;23.55;16.50;;;;;;;20.39;68.23;100365.06;5054798;28;20087;-73
2022/08/25 01:23:41;;;;;;;26.38;16.58;;;;;;;20.40;68.31;100353.34;5053559;28;20084;-73
2022/08/25 01:26:16;;;;;;;22.20;16.67;;;;;;;20.51;68.28;100370.78;5054814;28;20049;-74
2022/08/25 01:31:32;;;;;;;18.45;14.38;;;;;;;20.55;68.08;100358.41;5054745;28;20083;-74
2022/08/25 01:34:00;;;;;;;23.23;15.85;;;;;;;20.49;68.02;100358.94;5052993;28;20531;-74
2022/08/25 01:36:28;;;;;;;22.83;15.63;;;;;;;20.61;68.27;100366.66;5034519;28;20076;-73
2022/08/25 01:38:55;;;;;;;25.08;15.43;;;;;;;20.49;67.87;100345.59;5053627;28;20052;-73
2022/08/25 01:41:28;;;;;;;21.10;15.57;;;;;;;20.70;67.98;100364.56;5054695;28;20049;-74
2022/08/25 01:43:55;;;;;;;21.45;13.88;;;;;;;20.34;67.70;100300.88;5053765;28;20545;-74
2022/08/25 01:46:22;;;;;;;17.45;14.00;;;;;;;20.65;68.14;100359.09;5054333;28;20139;-74
2022/08/25 01:48:49;;;;;;;15.27;13.68;;;;;;;20.63;68.04;100367.16;5054346;28;20049;-75
2022/08/25 01:51:22;;;;;;;16.85;13.57;;;;;;;20.37;67.92;100308.69;5054292;28;20532;-74
2022/08/25 01:53:49;;;;;;;16.42;13.93;;;;;;;20.58;67.74;100332.16;5053624;28;20127;-73
2022/08/25 01:56:16;;;;;;;18.73;16.92;;;;;;;20.45;67.66;100310.59;5054584;28;20091;-73
2022/08/25 01:58:46;;;;;;;16.27;13.77;;;;;;;20.64;67.46;100323.41;5054159;28;20501;-73
2022/08/25 02:01:17;;;;;;;20.40;14.05;;;;;;;20.80;67.44;100349.91;5054046;28;20088;-73
2022/08/25 02:03:47;;;;;;;19.30;13.60;;;;;;;20.77;67.35;100359.13;5054248;28;20053;-74
2022/08/25 02:06:18;;;;;;;16.90;13.93;;;;;;;20.73;67.31;100349.66;5053907;28;20053;-73
2022/08/25 02:08:50;;;;;;;17.20;13.68;;;;;;;20.43;67.49;100301.59;5054275;28;20427;-74
2022/08/25 02:11:17;;;;;;;15.60;12.90;;;;;;;20.72;67.33;100342.34;5051880;28;20099;-74
2022/08/25 02:13:44;;;;;;;17.20;13.38;;;;;;;20.81;67.18;100360.06;5053998;28;20099;-74
2022/08/25 02:16:17;;;;;;;14.68;12.60;;;;;;;20.72;67.15;100337.47;5053775;28;20454;-74
2022/08/25 02:18:44;;;;;;;16.25;12.85;;;;;;;20.76;67.36;100346.13;5053637;28;20053;-74
2022/08/25 02:21:11;;;;;;;16.95;12.18;;;;;;;20.73;67.27;100346.81;5053889;28;20477;-74
2022/08/25 02:23:39;;;;;;;14.27;11.70;;;;;;;20.75;67.03;100341.59;5053644;28;20551;-73
2022/08/25 02:26:06;;;;;;;13.23;11.93;;;;;;;20.49;67.16;100310.72;5053463;28;20084;-73
2022/08/25 02:28:33;;;;;;;12.35;11.18;;;;;;;20.72;67.10;100346.00;5045577;28;20085;-74
2022/08/25 02:31:00;;;;;;;14.20;12.15;;;;;;;20.74;67.28;100354.97;5033988;28;20069;-73
2022/08/25 02:33:27;;;;;;;13.57;11.70;;;;;;;20.43;67.27;100295.94;5031558;28;20072;-73
2022/08/25 02:35:59;;;;;;;19.30;12.80;;;;;;;20.55;67.10;100313.00;5033328;28;20053;-73
2022/08/25 02:38:27;;;;;;;14.27;11.60;;;;;;;20.62;66.96;100320.09;5033248;28;20130;-74
2022/08/25 02:40:59;;;;;;;12.20;10.95;;;;;;;20.66;66.83;100333.22;5032445;28;20123;-73
2022/08/25 02:43:27;;;;;;;12.82;11.50;;;;;;;20.86;67.02;100359.00;5033573;28;20092;-74
2022/08/25 02:45:58;;;;;;;13.40;12.00;;;;;;;20.73;67.13;100333.47;5033921;28;20053;-74
2022/08/25 02:48:25;;;;;;;15.93;12.27;;;;;;;20.84;66.80;100362.19;5033553;28;20128;-73
2022/08/25 02:50:52;;;;;;;13.73;12.40;;;;;;;20.80;66.92;100358.41;5033075;28;20490;-74
2022/08/25 02:53:19;;;;;;;16.70;12.90;;;;;;;20.74;66.79;100339.97;5033448;28;20095;-74
2022/08/25 02:55:47;;;;;;;14.75;12.25;;;;;;;20.88;66.76;100360.28;5031312;28;20057;-74
2022/08/25 02:58:14;;;;;;;17.27;14.70;;;;;;;20.88;66.79;100348.94;5033174;28;20057;-74
2022/08/25 03:00:41;;;;;;;14.75;12.57;;;;;;;20.88;66.67;100348.13;5033086;28;20072;-74
2022/08/25 03:03:08;;;;;;;15.88;13.05;;;;;;;20.56;66.60;100302.47;5045777;28;20056;-74
2022/08/25 03:05:35;;;;;;;14.88;13.13;;;;;;;20.75;66.70;100333.94;5052936;28;20531;-73
2022/08/25 03:08:03;;;;;;;14.38;12.95;;;;;;;20.93;66.75;100351.56;5052868;28;20103;-74
2022/08/25 03:10:31;;;;;;;14.73;12.82;;;;;;;20.80;66.62;100339.38;5053109;28;20071;-74
2022/08/25 03:12:58;;;;;;;16.48;13.43;;;;;;;20.78;66.58;100329.53;5044650;28;20049;-74
2022/08/25 03:15:26;;;;;;;16.17;12.82;;;;;;;20.52;66.48;100288.19;5033047;28;20049;-74
2022/08/25 03:17:56;;;;;;;20.17;13.65;;;;;;;20.80;66.58;100330.84;5032867;28;20049;-74
2022/08/25 03:20:26;;;;;;;18.27;13.88;;;;;;;20.89;66.51;100342.09;5033221;28;20053;-74
2022/08/25 03:22:53;;;;;;;16.55;14.10;;;;;;;20.93;66.50;100348.72;5032734;28;20072;-74
2022/08/25 03:28:07;;;;;;;17.60;14.18;;;;;;;20.97;66.62;100358.16;5032506;28;20053;-75
2022/08/25 03:30:34;;;;;;;20.05;14.10;;;;;;;20.88;66.46;100340.41;5032582;28;20045;-73
2022/08/25 03:33:01;;;;;;;18.90;13.98;;;;;;;20.59;66.42;100304.63;5032895;28;20049;-73
2022/08/25 03:35:28;;;;;;;21.30;14.02;;;;;;;20.41;66.90;100272.78;5032573;28;20084;-73
2022/08/25 03:37:57;;;;;;;15.77;13.55;;;;;;;20.67;66.50;100305.66;5051846;28;20049;-75
2022/08/25 03:40:25;;;;;;;19.73;14.48;;;;;;;20.95;66.57;100357.69;5052767;28;20068;-73
2022/08/25 03:42:55;;;;;;;24.10;13.95;;;;;;;20.96;66.77;100365.03;5052403;28;20053;-73
2022/08/25 03:45:23;;;;;;;16.48;13.73;;;;;;;20.74;66.68;100322.94;5052410;28;20045;-74
2022/08/25 03:47:52;;;;;;;24.50;13.98;;;;;;;20.79;66.54;100336.91;5052650;28;20057;-74
2022/08/25 03:50:20;;;;;;;19.83;15.05;;;;;;;20.92;66.68;100364.09;5052636;28;20045;-74
2022/08/25 03:52:53;;;;;;;20.27;15.60;;;;;;;20.82;66.88;100345.53;5051610;28;20041;-74
2022/08/25 03:55:22;;;;;;;24.52;15.15;;;;;;;20.80;66.84;100353.56;5052614;28;20048;-73
2022/08/25 03:57:50;;;;;;;27.85;14.93;;;;;;;20.85;66.78;100363.84;5052557;28;20049;-73
2022/08/25 04:00:18;;;;;;;28.23;17.10;;;;;;;20.55;66.71;100334.88;5052095;28;20067;-74
2022/08/25 04:02:45;;;;;;;17.80;14.77;;;;;;;20.81;67.01;100371.41;5052324;28;20509;-74
2022/08/25 04:05:13;;;;;;;22.25;16.35;;;;;;;20.79;67.00;100368.94;5052369;28;20045;-73
2022/08/25 04:07:41;;;;;;;21.27;15.80;;;;;;;20.46;66.69;100326.44;5048387;28;20080;-73
2022/08/25 04:10:09;;;;;;;22.63;16.77;;;;;;;20.72;67.29;100359.38;5040861;28;20485;-73
2022/08/25 04:12:37;;;;;;;21.10;15.98;;;;;;;20.71;67.04;100369.84;5052443;28;20049;-74
2022/08/25 04:15:05;;;;;;;25.05;16.08;;;;;;;20.70;66.86;100356.03;5036160;28;20084;-73
2022/08/25 04:17:35;;;;;;;23.55;14.77;;;;;;;20.62;67.11;100343.63;5035998;28;20517;-73
2022/08/25 04:20:03;;;;;;;;;;;;;;;20.65;66.98;100361.94;5036559;28;20502;-74
2022/08/25 04:22:30;;;;;;;21.13;14.32;;;;;;;20.67;66.87;100345.41;5036258;28;19990;-74
2022/08/25 04:25:03;;;;;;;23.20;15.43;;;;;;;20.72;67.14;100354.50;5035974;28;20140;-74
2022/08/25 04:27:30;;;;;;;24.65;15.80;;;;;;;20.25;67.05;100269.81;5036348;28;20508;-74
2022/08/25 04:29:57;;;;;;;25.98;17.30;;;;;;;20.75;67.19;100344.44;5035737;28;20545;-75
2022/08/25 04:32:24;;;;;;;27.33;17.48;;;;;;;20.53;66.98;100297.50;5036070;28;20072;-74
2022/08/25 04:34:51;;;;;;;31.70;17.35;;;;;;;20.79;66.88;100345.41;5035793;28;20075;-74
2022/08/25 04:37:18;;;;;;;30.35;16.45;;;;;;;20.50;67.01;100301.88;5036178;28;20053;-73
2022/08/25 04:39:45;;;;;;;28.38;17.77;;;;;;;20.81;67.27;100357.22;5035889;28;20135;-74
2022/08/25 04:42:12;;;;;;;32.25;17.05;;;;;;;20.64;67.11;100346.09;5034605;28;20136;-74
2022/08/25 04:44:39;;;;;;;30.75;18.10;;;;;;;20.64;67.08;100346.09;5036219;28;20076;-75
2022/08/25 04:47:06;;;;;;;34.03;17.25;;;;;;;20.13;67.15;100270.59;5035554;28;20112;-74
2022/08/25 04:49:33;;;;;;;41.72;17.98;;;;;;;20.69;67.07;100343.88;5035360;28;20057;-73
2022/08/25 04:51:59;;;;;;;32.15;17.67;;;;;;;20.63;67.08;100330.25;5035783;28;20073;-74
2022/08/25 04:54:27;;;;;;;35.90;16.38;;;;;;;20.68;67.16;100336.50;5035715;28;20119;-74
2022/08/25 04:56:53;;;;;;;30.13;16.45;;;;;;;20.73;67.03;100338.31;5035379;28;20083;-73
2022/08/25 04:59:25;;;;;;;45.28;18.35;;;;;;;20.80;66.90;100355.56;5035740;28;20072;-74
2022/08/25 05:01:57;;;;;;;36.28;16.83;;;;;;;20.63;66.95;100328.25;5035958;28;20056;-74
2022/08/25 05:04:25;;;;;;;34.65;18.30;;;;;;;20.68;67.10;100339.34;5035206;28;20494;-73
2022/08/25 05:06:54;;;;;;;30.20;17.58;;;;;;;20.67;66.98;100336.88;5035186;28;20049;-74
2022/08/25 05:09:21;;;;;;;35.08;19.38;;;;;;;20.78;66.91;100363.59;5015598;28;20050;-74
2022/08/25 05:11:51;;;;;;;28.63;16.25;;;;;;;20.67;66.91;100331.22;5015648;28;20046;-74
2022/08/25 05:14:21;;;;;;;29.13;16.73;;;;;;;20.76;67.13;100363.13;5015552;28;20054;-74
2022/08/25 05:16:53;;;;;;;31.52;17.42;;;;;;;20.40;67.17;100310.81;5015434;28;20100;-74
2022/08/25 05:19:22;;;;;;;32.75;16.80;;;;;;;20.64;67.08;100351.78;5029650;28;20049;-74
2022/08/25 05:21:50;;;;;;;30.50;17.58;;;;;;;20.56;67.16;100345.03;5034804;28;20045;-73
2022/08/25 05:24:19;;;;;;;29.50;17.42;;;;;;;20.38;67.31;100320.88;5034864;28;20506;-74
2022/08/25 05:26:46;;;;;;;28.52;16.48;;;;;;;20.66;67.36;100369.28;5034784;28;20092;-74
2022/08/25 05:29:13;;;;;;;30.48;17.67;;;;;;;20.41;67.20;100338.03;5034778;28;20081;-73
2022/08/25 05:31:42;;;;;;;32.80;19.50;;;;;;;20.62;67.64;100359.81;5034744;28;20045;-73
2022/08/25 05:34:17;;;;;;;31.38;18.85;;;;;;;20.36;67.58;100324.06;5034597;28;20060;-73
2022/08/25 05:36:44;;;;;;;31.03;18.47;;;;;;;20.70;67.44;100373.06;5035211;28;20046;-73
2022/08/25 05:39:12;;;;;;;30.52;16.88;;;;;;;20.69;67.41;100362.91;5034853;28;20077;-73
2022/08/25 05:41:39;;;;;;;29.75;18.52;;;;;;;20.77;67.62;100381.81;5034407;28;20045;-73
2022/08/25 05:44:06;;;;;;;33.92;18.58;;;;;;;20.73;67.18;100372.34;5034435;28;20053;-73
2022/08/25 05:46:33;;;;;;;31.05;18.92;;;;;;;20.58;67.50;100349.19;5034753;28;20081;-73
2022/08/25 05:49:00;;;;;;;30.65;18.27;;;;;;;20.60;67.31;100363.00;5034615;28;20045;-74
2022/08/25 05:51:27;;;;;;;32.20;17.88;;;;;;;20.41;67.33;100328.66;5034629;28;20076;-75
2022/08/25 05:53:54;;;;;;;26.55;18.60;;;;;;;20.66;67.22;100377.78;5034779;28;20469;-75
2022/08/25 05:56:21;;;;;;;32.08;18.75;;;;;;;20.53;67.38;100368.44;5034164;28;20076;-73
2022/08/25 05:58:49;;;;;;;35.83;17.45;;;;;;;20.04;67.33;100292.59;5033987;28;20080;-73
2022/08/25 06:04:09;;;;;;;29.98;19.83;;;;;;;20.57;67.65;100387.22;5034024;28;20132;-74
2022/08/25 06:06:37;;;;;;;31.88;17.40;;;;;;;20.38;67.72;100357.75;5034275;28;20132;-73
2022/08/25 06:09:07;;;;;;;31.15;17.67;;;;;;;20.43;67.72;100369.69;5024425;28;20509;-74
2022/08/25 06:11:34;;;;;;;;;;;;;;;20.51;67.82;100391.50;5054591;28;20041;-74
2022/08/25 06:14:01;;;;;;;32.67;17.35;;;;;;;20.50;67.88;100397.47;5054173;28;20000;-74
2022/08/25 06:16:28;;;;;;;36.15;21.98;;;;;;;20.22;67.85;100363.25;5053804;28;20076;-74
2022/08/25 06:18:55;;;;;;;29.13;20.73;;;;;;;20.34;67.83;100385.97;5053785;28;20044;-74
2022/08/25 06:21:22;;;;;;;33.42;20.27;;;;;;;20.31;67.85;100392.34;5052727;28;20482;-74
2022/08/25 06:23:49;;;;;;;27.55;17.50;;;;;;;20.33;68.07;100392.81;5038213;28;20072;-74
2022/08/25 06:26:18;;;;;;;28.88;18.75;;;;;;;20.46;67.95;100414.38;5034233;28;20061;-73
2022/08/25 06:28:48;;;;;;;29.23;18.40;;;;;;;20.35;67.99;100401.81;5033383;28;20062;-73
2022/08/25 06:31:16;;;;;;;24.42;18.63;;;;;;;20.44;67.97;100413.88;5033424;28;20099;-73
2022/08/25 06:33:43;;;;;;;29.85;17.67;;;;;;;20.45;67.92;100426.91;5032473;28;20091;-73
2022/08/25 06:36:10;;;;;;;28.17;18.38;;;;;;;19.96;68.08;100340.84;5033574;28;20506;-73
2022/08/25 06:38:37;;;;;;;31.38;21.35;;;;;;;19.85;67.79;100315.78;5033551;28;20494;-74
2022/08/25 06:41:07;;;;;;;23.33;17.95;;;;;;;20.44;68.19;100407.38;5033917;28;20128;-74
2022/08/25 06:43:34;;;;;;;22.52;16.65;;;;;;;20.29;68.15;100389.84;5032208;28;20501;-74
2022/08/25 06:46:08;;;;;;;24.92;16.40;;;;;;;20.16;68.34;100364.66;5029415;28;20414;-74
2022/08/25 06:48:36;;;;;;;21.80;17.75;;;;;;;20.31;68.28;100390.34;5015021;28;20457;-74
2022/08/25 06:51:07;;;;;;;26.40;18.90;;;;;;;20.21;68.41;100375.78;5033561;28;20080;-74
2022/08/25 06:53:40;;;;;;;26.42;17.05;;;;;;;20.08;68.27;100363.56;5033507;28;20473;-74
2022/08/25 06:56:07;;;;;;;24.30;17.48;;;;;;;20.46;68.16;100417.19;5033120;28;20135;-74
2022/08/25 06:58:34;;;;;;;20.83;16.30;;;;;;;20.23;68.05;100360.06;5032998;28;20506;-72
2022/08/25 07:01:30;;;;;;;23.10;16.00;;;;;;;20.53;67.95;100405.31;5033736;28;20490;-74
2022/08/25 07:03:59;;;;;;;25.83;17.27;;;;;;;20.48;68.11;100391.34;5033411;28;20049;-75
2022/08/25 07:06:30;;;;;;;18.27;16.42;;;;;;;20.42;68.07;100379.38;5033133;28;20099;-75
2022/08/25 07:08:58;;;;;;;21.23;19.00;;;;;;;20.35;68.01;100360.09;5032929;28;20422;-74
2022/08/25 07:11:25;;;;;;;23.60;15.63;;;;;;;20.41;67.92;100371.19;5032993;28;20133;-74
2022/08/25 07:13:52;;;;;;;21.95;15.82;;;;;;;20.19;67.74;100318.59;5033136;28;20076;-74
2022/08/25 07:16:20;;;;;;;17.83;15.13;;;;;;;20.68;67.83;100389.59;5033210;28;20136;-74
2022/08/25 07:18:49;;;;;;;25.10;17.83;;;;;;;20.78;67.87;100415.50;5033981;28;20497;-74
2022/08/25 07:21:16;;;;;;;16.27;14.68;;;;;;;20.57;67.78;100364.53;5034221;28;20445;-73
2022/08/25 07:23:51;;;;;;;18.65;14.82;;;;;;;20.95;67.68;100413.63;5034094;28;20049;-74
2022/08/25 07:26:20;;;;;;;16.10;14.43;;;;;;;21.05;67.54;100424.50;5033235;28;20084;-74
2022/08/25 07:29:21;;;;;;;17.92;16.13;;;;;;;20.58;67.51;100332.16;5032941;28;20064;-73
2022/08/25 07:32:00;;;;;;;15.93;14.32;;;;;;;20.95;67.27;100368.22;5033575;28;20103;-74
2022/08/25 07:37:19;;;;;;;17.50;14.60;;;;;;;21.31;66.67;100401.44;5032392;28;20132;-75
2022/08/25 07:40:07;;;;;;;16.17;14.80;;;;;;;21.36;66.71;100403.22;5032294;28;20172;-75
2022/08/25 07:42:34;;;;;;;14.43;13.10;;;;;;;21.45;66.57;100410.44;5037254;28;20418;-74
2022/08/25 07:45:04;;;;;;;14.73;13.20;;;;;;;21.35;66.63;100378.88;5039381;28;20045;-74
2022/08/25 07:47:33;;;;;;;14.65;13.35;;;;;;;21.86;66.25;100436.06;5039391;28;20049;-75
2022/08/25 07:50:00;;;;;;;14.30;12.93;;;;;;;21.88;66.24;100411.78;5039089;28;20049;-75
2022/08/25 07:52:31;;;;;;;12.73;11.63;;;;;;;21.88;65.82;100403.25;5039524;28;20073;-74
2022/08/25 07:54:59;;;;;;;13.70;12.38;;;;;;;21.92;65.47;100401.31;5038985;28;20057;-74
2022/08/25 07:57:28;;;;;;;14.05;12.73;;;;;;;21.78;65.49;100355.44;5039127;28;20071;-74
2022/08/25 07:59:57;;;;;;;13.85;12.55;;;;;;;22.53;65.23;100422.13;5039391;28;20077;-75
2022/08/25 08:02:25;;;;;;;13.05;11.85;;;;;;;23.12;64.44;100435.53;5038762;28;20045;-75
2022/08/25 08:04:52;;;;;;;12.88;10.95;;;;;;;23.63;63.58;100429.84;5037506;28;20050;-74
2022/08/25 08:07:22;;;;;;;12.98;11.65;;;;;;;23.74;63.00;100371.06;5038038;28;20429;-75
2022/08/25 08:10:05;;;;;;;13.15;11.85;;;;;;;24.39;62.15;100378.06;5046259;28;20057;-74
2022/08/25 08:12:53;;;;;;;14.70;13.45;;;;;;;24.76;61.38;100347.78;5039104;28;20049;-73
2022/08/25 08:15:20;;;;;;;14.00;12.65;;;;;;;25.66;60.25;100406.34;5039075;28;20431;-74
2022/08/25 08:17:48;;;;;;;15.75;12.50;;;;;;;26.24;59.40;100431.66;5039115;28;20049;-75
2022/08/25 08:20:16;;;;;;;14.52;13.18;;;;;;;26.37;58.48;100401.56;5038753;28;20152;-74
2022/08/25 08:22:49;;;;;;;12.43;11.35;;;;;;;26.91;57.69;100431.63;5038843;28;20077;-75
2022/08/25 08:25:16;;;;;;;12.55;11.45;;;;;;;27.13;56.71;100403.97;5038132;28;20049;-74
2022/08/25 08:27:47;;;;;;;15.35;12.00;;;;;;;27.71;55.80;100436.75;5039095;28;20073;-75
2022/08/25 08:30:15;;;;;;;13.20;11.87;;;;;;;28.03;54.64;100422.59;5038762;28;20066;-74
2022/08/25 08:32:43;;;;;;;14.30;11.77;;;;;;;28.20;53.67;100386.56;5039201;28;20049;-75
2022/08/25 08:35:29;;;;;;;12.98;11.80;;;;;;;28.88;53.44;100438.47;5038654;28;20578;-75
2022/08/25 08:37:56;;;;;;;14.32;12.98;;;;;;;29.05;52.44;100425.38;5038718;28;20050;-75
2022/08/25 08:40:23;;;;;;;13.80;12.10;;;;;;;29.41;51.94;100443.47;5038640;28;20049;-75
2022/08/25 08:43:04;;;;;;;13.30;11.98;;;;;;;29.72;51.15;100436.03;5039571;28;20053;-75
2022/08/25 08:45:35;;;;;;;13.40;12.23;;;;;;;29.53;50.30;100359.59;5038746;28;20132;-75
2022/08/25 08:48:37;;;;;;;13.20;12.10;;;;;;;30.21;49.93;100437.13;5038672;28;20065;-75
2022/08/25 08:51:19;;;;;;;14.32;11.77;;;;;;;30.41;49.47;100446.09;5038679;28;20041;-75
2022/08/25 08:53:48;;;;;;;15.20;13.68;;;;;;;30.64;49.33;100462.06;5036919;28;20068;-75
2022/08/25 08:56:48;;;;;;;12.52;11.38;;;;;;;30.68;48.75;100440.59;5035382;28;20084;-75
2022/08/25 08:59:20;;;;;;;12.82;11.73;;;;;;;30.92;47.88;100455.31;5035499;28;20383;-75
2022/08/25 09:01:59;;;;;;;13.73;12.32;;;;;;;31.06;47.20;100460.16;5035375;28;20075;-75
2022/08/25 09:05:01;;;;;;;13.38;11.88;;;;;;;31.22;47.60;100457.56;5035245;28;20057;-76
2022/08/25 09:07:39;;;;;;;13.23;12.02;;;;;;;31.55;47.04;100453.16;5024526;28;20128;-75
2022/08/25 09:10:09;;;;;;;13.00;11.88;;;;;;;31.71;46.39;100449.69;5035156;28;20084;-75
2022/08/25 09:12:58;;;;;;;12.85;11.85;;;;;;;31.96;46.07;100449.44;5034294;28;20103;-75
2022/08/25 09:18:53;;;;;;;12.20;11.27;;;;;;;32.28;45.47;100454.84;5015134;28;20054;-75
2022/08/25 09:21:29;;;;;;;13.25;12.15;;;;;;;32.30;44.97;100457.28;5015287;28;20046;-75
2022/08/25 09:24:08;;;;;;;15.30;12.18;;;;;;;32.42;44.73;100458.84;5015524;28;20046;-75
2022/08/25 09:27:05;;;;;;;13.90;12.80;;;;;;;32.53;44.43;100457.44;5015288;28;20108;-74
2022/08/25 09:30:00;;;;;;;13.20;11.90;;;;;;;32.67;44.27;100453.53;5015105;28;20057;-75
2022/08/25 09:32:37;;;;;;;;;;;;;;;32.73;44.79;100456.75;5015666;28;20069;-75
2022/08/25 09:35:08;;;;;;;12.82;11.77;;;;;;;32.99;43.61;100455.13;5014971;28;19925;-75
2022/08/25 09:37:35;;;;;;;12.50;11.40;;;;;;;33.02;43.23;100448.47;5014990;28;20046;-75
2022/08/25 09:40:02;;;;;;;13.15;11.82;;;;;;;32.98;42.62;100415.91;5015234;28;20100;-75
2022/08/25 09:42:48;;;;;;;12.25;11.23;;;;;;;33.31;42.64;100459.59;5014827;28;20046;-74
2022/08/25 09:45:29;;;;;;;12.50;11.40;;;;;;;33.43;41.97;100436.63;5015146;28;20053;-75
2022/08/25 09:47:55;;;;;;;13.65;12.65;;;;;;;33.45;41.66;100425.44;5014742;28;20050;-75
2022/08/25 09:50:22;;;;;;;13.02;12.10;;;;;;;33.68;41.02;100436.22;5022316;28;20100;-75
2022/08/25 09:52:49;;;;;;;10.45;9.75;;;;;;;33.62;41.10;100449.56;5033544;28;20041;-75
2022/08/25 09:55:28;;;;;;;10.75;10.05;;;;;;;33.52;40.82;100443.97;5034715;28;20469;-74
2022/08/25 09:57:58;;;;;;;;;;;;;;;33.41;42.86;100450.72;5034819;28;20211;-74
2022/08/25 10:00:32;;;;;;;12.30;11.50;;;;;;;33.79;41.36;100441.78;5034336;28;19947;-75
2022/08/25 10:02:59;;;;;;;12.43;11.32;;;;;;;34.02;40.85;100451.72;5034840;28;20073;-75
2022/08/25 10:05:34;;;;;;;12.27;11.30;;;;;;;34.07;40.08;100440.44;5033815;28;20053;-74
2022/08/25 10:08:09;;;;;;;13.40;10.77;;;;;;;33.64;40.39;100406.50;5044727;28;20053;-74
2022/08/25 10:10:45;;;;;;;12.48;11.43;;;;;;;33.83;39.98;100438.81;5054082;28;20076;-74
2022/08/25 10:13:18;;;;;;;12.18;11.00;;;;;;;33.82;39.67;100437.19;5054426;28;20045;-75
2022/08/25 10:16:04;;;;;;;11.32;10.43;;;;;;;33.69;40.11;100440.72;5053930;28;20052;-75
2022/08/25 10:19:28;;;;;;;12.68;11.57;;;;;;;33.80;40.57;100449.22;5053996;28;20048;-75
2022/08/25 10:22:01;;;;;;;11.90;10.48;;;;;;;33.68;40.04;100449.88;5046929;28;20461;-76
2022/08/25 10:24:28;;;;;;;12.52;11.27;;;;;;;33.36;40.19;100441.72;5051937;28;20464;-75
2022/08/25 10:27:26;;;;;;;11.98;10.95;;;;;;;33.10;40.41;100400.03;5053608;28;20053;-75
2022/08/25 10:30:00;;;;;;;12.27;11.35;;;;;;;33.61;39.97;100456.63;5048206;28;20052;-75
2022/08/25 10:32:46;;;;;;;13.43;12.52;;;;;;;33.76;40.24;100467.94;5039780;28;20084;-75
2022/08/25 10:35:30;;;;;;;14.80;13.80;;;;;;;33.72;39.93;100451.44;5033459;28;20053;-75
2022/08/25 10:38:32;;;;;;;10.73;9.82;;;;;;;33.87;40.07;100430.88;5031002;28;20060;-74
2022/08/25 10:41:37;;;;;;;13.00;11.80;;;;;;;33.93;39.66;100455.19;5018643;28;20056;-75
2022/08/25 10:47:28;;;;;;;10.95;10.02;;;;;;;33.36;39.80;100459.09;5032154;28;20049;-75
2022/08/25 10:50:09;;;;;;;10.45;9.63;;;;;;;32.78;40.61;100396.34;5037545;28;20064;-75
2022/08/25 10:52:51;;;;;;;10.00;9.25;;;;;;;33.36;39.73;100462.78;5034009;28;20041;-74
2022/08/25 10:55:33;;;;;;;10.10;9.20;;;;;;;33.36;39.60;100448.31;5034023;28;20053;-74
2022/08/25 10:58:31;;;;;;;10.83;9.83;;;;;;;33.64;40.00;100444.16;5034546;28;20049;-74
2022/08/25 11:01:25;;;;;;;20.08;11.82;;;;;;;34.37;38.72;100442.28;5027993;28;20053;-74
2022/08/25 11:04:00;;;;;;;11.18;10.38;;;;;;;35.22;37.47;100440.78;5031570;28;20088;-73
2022/08/25 11:06:51;;;;;;;11.18;10.38;;;;;;;36.29;36.26;100441.59;5034203;28;20144;-74
2022/08/25 11:09:24;;;;;;;10.90;10.10;;;;;;;36.27;36.03;100432.50;5034118;28;20049;-74
2022/08/25 11:11:56;;;;;;;11.05;10.25;;;;;;;36.14;36.01;100433.75;5033837;28;20490;-74
2022/08/25 11:14:28;;;;;;;10.95;10.25;;;;;;;35.96;36.22;100437.94;5032919;28;20128;-74
2022/08/25 11:17:08;;;;;;;10.57;9.88;;;;;;;35.82;36.48;100435.47;5053099;28;20114;-73
2022/08/25 11:19:48;;;;;;;10.43;9.70;;;;;;;35.54;36.15;100387.69;5055828;28;20060;-73
2022/08/25 11:22:22;;;;;;;10.82;10.13;;;;;;;35.54;36.04;100425.44;5054389;28;20084;-74
2022/08/25 11:25:14;;;;;;;12.40;11.35;;;;;;;35.14;37.30;100414.00;5054628;28;20071;-74
2022/08/25 11:27:54;;;;;;;10.05;9.30;;;;;;;35.38;36.80;100427.06;5053692;28;20111;-74
2022/08/25 11:30:21;;;;;;;10.98;10.07;;;;;;;35.28;36.53;100354.75;5053645;28;20497;-75
2022/08/25 11:32:53;;;;;;;12.13;10.98;;;;;;;35.87;35.60;100402.94;5051774;28;20049;-76
2022/08/25 11:35:32;;;;;;;11.95;10.95;;;;;;;36.18;35.81;100406.22;5053513;28;20494;-75
2022/08/25 11:38:03;;;;;;;10.00;9.32;;;;;;;36.45;35.31;100408.72;5053369;28;20135;-74
2022/08/25 11:41:20;;;;;;;10.20;9.50;;;;;;;36.64;35.23;100415.63;5053557;28;20102;-75
2022/08/25 11:44:09;;;;;;;12.63;11.75;;;;;;;36.88;35.17;100404.44;4972312;28;20134;-76
2022/08/25 11:46:54;;;;;;;11.93;10.98;;;;;;;36.88;34.35;100410.28;4971964;28;20054;-75
2022/08/25 11:49:36;;;;;;;9.43;8.48;;;;;;;36.97;33.94;100398.78;5024339;28;20052;-74
2022/08/25 11:52:28;;;;;;;9.30;8.48;;;;;;;37.15;34.15;100379.88;5056727;28;20041;-74